LFLL Airport Information

Runway Information
Runway 18L Length 8760 ft width 148 ft
Elevation 780 ft Threshold 0 ft Heading 175
Runway 36R Length 8760 ft Width 148 ft
Elevation 821 ft Threshold 0 ft Heading 355
Runway 18R Length 13124 ft width 148 ft
Elevation 758 ft Threshold 0 ft Heading 175
Runway 36L Length 13124 ft Width 148 ft
Elevation 813 ft Threshold 0 ft Heading 355
Airport Frequencies
Type A/D Name Lyon appro Frequency 136.075 MHZ
Type ATIS Name ATIS Frequency 126.175 MHZ
Type GND Name GND Frequency 121.825 MHZ
Type INFO Name INFO Frequency 135.2 MHZ
Type PFLT Name PREFLIGHT Frequency 121.7 MHZ
Type TWR Name TWR Frequency 120.45 MHZ
Airport Navaids
Type VOR-DME Name Lyon/Saint Exupery Frequency 114750 KHZ
Airport Weather Information & NOTAM
ADDS - METARS form results

(0221 UTC 07 July 2020)
Data provider http://aviationweather.gov/metar/data/
 
METAR text: LFLL 070200Z 34009KT CAVOK 14/07 Q1020 NOSIG
Conditions at: LFLL (LYON/SATOLAS , FR) observed 0200 UTC 07 July 2020
Temperature: 14.0°C (57°F)
Dewpoint: 7.0°C (45°F) [RH = 63%]
Pressure (altimeter): 30.12 inches Hg (1020.0 mb)
Winds: from the NNW (340 degrees) at 10 MPH (9 knots; 4.6 m/s)
Visibility: 6 or more miles (10+ km)
Ceiling: ceiling and visibility are OK
Clouds: unknown
Weather: no significant weather observed at this time

METAR text: LFLL 070130Z 34009KT CAVOK 14/07 Q1020 NOSIG
Conditions at: LFLL (LYON/SATOLAS , FR) observed 0130 UTC 07 July 2020
Temperature: 14.0°C (57°F)
Dewpoint: 7.0°C (45°F) [RH = 63%]
Pressure (altimeter): 30.12 inches Hg (1020.0 mb)
Winds: from the NNW (340 degrees) at 10 MPH (9 knots; 4.6 m/s)
Visibility: 6 or more miles (10+ km)
Ceiling: ceiling and visibility are OK
Clouds: unknown
Weather: no significant weather observed at this time

Forecast for: LFLL (LYON/SATOLAS , FR)
Text: TAF LFLL 062300Z 0700/0806 35012KT CAVOK
Forecast period: 0000 UTC 07 July 2020 to 0600 UTC 08 July 2020
Forecast type: FROM: standard forecast or significant change
Winds: from the N (350 degrees) at 14 MPH (12 knots; 6.2 m/s)
Visibility: 6 or more miles 10+ km)
Ceiling: unknown
Clouds: missing
Weather: NSW  (no significant weather)
Text: TEMPO 0802/0806 VRB02KT
Forecast period: 0200 to 0600 UTC 08 July 2020
Forecast type: TEMPORARY: The following changes expected for less than half the time period
Winds: variable direction winds at 2 MPH (2 knots; 1.0 m/s)
Visibility: missing
Ceiling: unknown
Clouds: missing
Weather: no significant weather forecast for this period